Terminal Aerodrome Forecast
Issued by NWS

Home | Current Version | Previous Version | Text Only | Print | Product List | Glossary On
Versions: 1 2 3 4 5 6 7 8 9 10 11 12 13 14 15 16
000
FTUS43 KLSX 141100
TAFCPS
TAF
KCPS 141132Z 1412/1512 30012G20KT P6SM SCT008 OVC014
      TEMPO 1412/1414 5SM -DZ BKN008 OVC012
     FM141400 30014G22KT P6SM OVC016
     FM142200 33016G24KT 5SM -RA OVC020
      TEMPO 1501/1503 2SM -RASN OVC010
     FM150300 33015KT P6SM BKN035
     FM150600 32009KT P6SM SKC=

USA.gov is the U.S. government's official web portal to all federal, state and local government web resources and services.